createdAt,value
2019-03-03T00:01:54.252Z,9.40
2019-03-03T00:03:59.988Z,9.30
2019-03-03T00:06:05.746Z,9.30
2019-03-03T00:08:10.297Z,9.30
2019-03-03T00:10:15.741Z,9.30
2019-03-03T00:12:20.724Z,9.30
2019-03-03T00:14:26.751Z,9.30
2019-03-03T00:16:34.224Z,9.30
2019-03-03T00:18:39.660Z,9.30
2019-03-03T00:20:46.524Z,9.30
2019-03-03T00:22:55.603Z,9.20
2019-03-03T00:25:00.530Z,9.30
2019-03-03T00:27:15.209Z,9.30
2019-03-03T00:29:21.110Z,9.30
2019-03-03T00:31:38.016Z,9.30
2019-03-03T00:33:56.282Z,9.30
2019-03-03T00:36:05.699Z,9.40
2019-03-03T00:38:32.710Z,9.30
2019-03-03T00:40:55.914Z,9.40
2019-03-03T00:43:16.936Z,9.40
2019-03-03T00:45:40.913Z,9.40
2019-03-03T00:48:05.848Z,9.30
2019-03-03T00:50:18.930Z,9.30
2019-03-03T00:52:37.052Z,9.30
2019-03-03T00:54:57.240Z,9.30
2019-03-03T00:57:20.570Z,9.30
2019-03-03T00:59:32.336Z,9.20
2019-03-03T01:01:45.704Z,9.20
2019-03-03T01:04:15.740Z,9.30
2019-03-03T01:06:48.810Z,9.30
2019-03-03T01:09:24.350Z,9.30
2019-03-03T01:11:55.330Z,9.40
2019-03-03T01:14:11.779Z,9.50
2019-03-03T01:16:34.210Z,9.50
2019-03-03T01:18:47.979Z,9.60
2019-03-03T01:21:03.939Z,9.60
2019-03-03T01:23:35.621Z,9.60
2019-03-03T01:25:40.977Z,9.70
2019-03-03T01:27:48.036Z,9.70
2019-03-03T01:29:55.049Z,9.70
2019-03-03T01:32:02.482Z,9.80
2019-03-03T01:34:07.876Z,9.80
2019-03-03T01:36:15.558Z,9.80
2019-03-03T01:38:20.907Z,9.80
2019-03-03T01:40:26.821Z,9.80
2019-03-03T01:42:31.289Z,9.80
2019-03-03T01:44:35.751Z,9.80
2019-03-03T01:46:40.576Z,9.80
2019-03-03T01:48:45.233Z,9.90
2019-03-03T01:50:50.180Z,9.90
2019-03-03T01:52:55.583Z,9.90
2019-03-03T01:55:02.866Z,10.00
2019-03-03T01:57:07.480Z,9.90
2019-03-03T01:59:12.890Z,9.90
2019-03-03T02:01:18.780Z,9.90
2019-03-03T02:03:23.619Z,9.90
2019-03-03T02:05:28.483Z,10.00
2019-03-03T02:07:33.479Z,9.90
2019-03-03T02:09:39.660Z,9.90
2019-03-03T02:11:44.745Z,9.80
2019-03-03T02:13:49.416Z,9.80
2019-03-03T02:15:54.031Z,9.90
2019-03-03T02:18:00.117Z,9.90
2019-03-03T02:20:04.972Z,9.90
2019-03-03T02:22:09.890Z,9.90
2019-03-03T02:24:14.401Z,9.90
2019-03-03T02:26:20.285Z,9.90
2019-03-03T02:28:26.227Z,9.90
2019-03-03T02:30:30.858Z,9.90
2019-03-03T02:32:35.870Z,9.80
2019-03-03T02:34:41.659Z,9.80
2019-03-03T02:36:47.210Z,9.90
2019-03-03T02:38:54.520Z,9.80
2019-03-03T02:40:59.014Z,9.80
2019-03-03T02:43:03.566Z,9.80
2019-03-03T02:45:09.075Z,9.80
2019-03-03T02:47:14.074Z,9.80
2019-03-03T02:49:19.349Z,9.80
2019-03-03T02:51:24.565Z,9.80
2019-03-03T02:53:29.142Z,9.80
2019-03-03T02:55:35.393Z,9.80
2019-03-03T02:57:40.654Z,9.80
2019-03-03T02:59:45.480Z,9.80
2019-03-03T03:02:02.979Z,9.80
2019-03-03T03:04:11.271Z,9.80
2019-03-03T03:06:35.122Z,9.90
2019-03-03T03:09:01.961Z,9.90
2019-03-03T03:11:24.550Z,9.90
2019-03-03T03:13:39.057Z,9.90
2019-03-03T03:15:57.510Z,9.90
2019-03-03T03:18:09.307Z,9.90
2019-03-03T03:20:29.835Z,9.90
2019-03-03T03:22:57.773Z,9.90
2019-03-03T03:25:11.010Z,10.00
2019-03-03T03:27:25.507Z,9.90
2019-03-03T03:30:01.046Z,9.90
2019-03-03T03:32:23.209Z,9.90
2019-03-03T03:34:38.717Z,9.90
2019-03-03T03:36:52.808Z,9.90
2019-03-03T03:39:17.447Z,9.90
2019-03-03T03:41:47.545Z,9.90
2019-03-03T03:44:11.508Z,9.90
2019-03-03T03:46:27.038Z,9.90
2019-03-03T03:48:59.013Z,10.00
2019-03-03T03:51:21.310Z,10.00
2019-03-03T03:53:43.534Z,10.00
2019-03-03T03:56:07.328Z,10.00
2019-03-03T03:58:33.884Z,9.90
2019-03-03T04:00:50.977Z,9.90
2019-03-03T04:03:14.857Z,9.90
2019-03-03T04:05:27.312Z,9.90
2019-03-03T04:07:41.189Z,10.00
2019-03-03T04:09:59.803Z,9.90
2019-03-03T04:12:41.663Z,9.90
2019-03-03T04:15:11.609Z,9.90
2019-03-03T04:17:36.102Z,9.80
2019-03-03T04:20:02.970Z,9.80
2019-03-03T04:22:30.218Z,9.80
2019-03-03T04:24:53.350Z,9.80
2019-03-03T04:27:26.029Z,9.80
2019-03-03T04:29:55.906Z,9.80
2019-03-03T04:32:08.739Z,9.80
2019-03-03T04:34:21.651Z,9.80
2019-03-03T04:36:49.481Z,9.90
2019-03-03T04:39:11.741Z,9.80
2019-03-03T04:41:42.235Z,9.90
2019-03-03T04:44:00.712Z,9.90
2019-03-03T04:46:16.483Z,9.90
2019-03-03T04:48:30.356Z,9.90
2019-03-03T04:50:43.873Z,9.90
2019-03-03T04:53:00.356Z,9.90
2019-03-03T04:55:22.990Z,9.90
2019-03-03T04:57:37.980Z,9.90
2019-03-03T05:00:00.514Z,10.00
2019-03-03T05:02:36.220Z,9.90
2019-03-03T05:04:53.074Z,9.90
2019-03-03T05:07:08.760Z,9.90
2019-03-03T05:09:39.201Z,10.00
2019-03-03T05:12:36.463Z,10.10
2019-03-03T05:14:43.643Z,10.10
2019-03-03T05:17:02.306Z,10.10
2019-03-03T05:19:15.902Z,10.10
2019-03-03T05:21:21.189Z,10.10
2019-03-03T05:23:39.562Z,10.10
2019-03-03T05:25:46.118Z,10.20
2019-03-03T05:27:53.065Z,10.20
2019-03-03T05:30:17.705Z,10.20
2019-03-03T05:32:29.652Z,10.20
2019-03-03T05:34:36.811Z,10.20
2019-03-03T05:36:44.886Z,10.20
2019-03-03T05:38:54.556Z,10.30
2019-03-03T05:41:01.829Z,10.30
2019-03-03T05:43:07.869Z,10.30
2019-03-03T05:45:14.511Z,10.30
2019-03-03T05:47:21.706Z,10.30
2019-03-03T05:49:26.393Z,10.30
2019-03-03T05:51:31.467Z,10.30
2019-03-03T05:53:35.951Z,10.40
2019-03-03T05:55:40.540Z,10.40
2019-03-03T06:00:38.904Z,10.40
2019-03-03T06:02:44.388Z,10.40
2019-03-03T06:04:52.467Z,10.40
2019-03-03T06:07:01.346Z,10.40
2019-03-03T06:09:07.074Z,10.40
2019-03-03T06:11:11.617Z,10.40
2019-03-03T06:13:16.912Z,10.40
2019-03-03T06:15:24.079Z,10.40
2019-03-03T06:17:29.131Z,10.50
2019-03-03T06:19:34.619Z,10.50
2019-03-03T06:21:40.502Z,10.50
2019-03-03T06:23:47.057Z,10.50
2019-03-03T06:25:53.693Z,10.50
2019-03-03T06:27:58.620Z,10.50
2019-03-03T06:30:05.523Z,10.50
2019-03-03T06:32:12.377Z,10.50
2019-03-03T06:34:31.520Z,10.50
2019-03-03T06:36:36.389Z,10.50
2019-03-03T06:38:40.966Z,10.50
2019-03-03T06:40:46.269Z,10.50
2019-03-03T06:42:53.292Z,10.60
2019-03-03T06:44:59.489Z,10.60
2019-03-03T06:47:04.810Z,10.50
2019-03-03T06:49:10.389Z,10.60
2019-03-03T06:51:15.362Z,10.60
2019-03-03T06:53:20.260Z,10.50
2019-03-03T06:55:25.500Z,10.60
2019-03-03T06:57:33.875Z,10.60
2019-03-03T06:59:38.879Z,10.60
2019-03-03T07:01:43.790Z,10.60
2019-03-03T07:03:48.722Z,10.70
2019-03-03T07:05:54.567Z,10.80
2019-03-03T07:08:02.947Z,10.70
2019-03-03T07:10:10.570Z,10.70
2019-03-03T07:12:15.150Z,10.70
2019-03-03T07:14:21.811Z,10.70
2019-03-03T07:16:27.002Z,10.70
2019-03-03T07:18:49.920Z,10.70
2019-03-03T07:20:53.827Z,10.80
2019-03-03T07:22:59.000Z,10.80
2019-03-03T07:25:06.111Z,10.80
2019-03-03T07:27:17.707Z,10.90
2019-03-03T07:29:22.659Z,10.90
2019-03-03T07:31:37.664Z,10.90
2019-03-03T07:33:52.049Z,10.90
2019-03-03T07:36:06.559Z,10.90
2019-03-03T07:38:14.182Z,10.90
2019-03-03T07:40:22.487Z,10.90
2019-03-03T07:42:28.229Z,11.00
2019-03-03T07:44:43.245Z,11.00
2019-03-03T07:46:50.052Z,11.00
2019-03-03T07:48:57.577Z,11.00
2019-03-03T07:51:02.667Z,11.00
2019-03-03T07:53:10.729Z,11.10
2019-03-03T07:55:16.256Z,11.20
2019-03-03T07:57:21.553Z,11.30
2019-03-03T07:59:26.723Z,11.30
2019-03-03T08:01:32.855Z,11.30
2019-03-03T08:03:37.777Z,11.40
2019-03-03T08:05:43.839Z,11.40
2019-03-03T08:07:48.935Z,11.30
2019-03-03T08:09:55.631Z,11.30
2019-03-03T08:12:18.840Z,11.30
2019-03-03T08:14:24.715Z,11.20
2019-03-03T08:16:30.112Z,11.30
2019-03-03T08:18:34.825Z,11.30
2019-03-03T08:20:39.394Z,11.20
2019-03-03T08:22:47.575Z,11.20
2019-03-03T08:34:09.264Z,11.20
2019-03-03T08:36:14.282Z,11.10
2019-03-03T08:38:20.572Z,11.10
2019-03-03T08:40:43.929Z,11.10
2019-03-03T08:43:07.346Z,11.00
2019-03-03T08:45:34.305Z,10.90
2019-03-03T08:47:53.335Z,11.00
2019-03-03T08:50:15.038Z,10.90
2019-03-03T08:52:45.623Z,10.90
2019-03-03T08:55:27.384Z,10.80
2019-03-03T08:57:57.454Z,10.70
2019-03-03T09:00:21.487Z,10.70
2019-03-03T09:02:37.371Z,10.60
2019-03-03T09:05:00.290Z,10.60
2019-03-03T09:07:24.145Z,10.60
2019-03-03T09:12:44.052Z,10.60
2019-03-03T09:15:42.430Z,10.70
2019-03-03T09:18:14.073Z,10.70
2019-03-03T09:20:56.146Z,10.70
2019-03-03T09:23:46.807Z,10.70
2019-03-03T09:29:27.193Z,10.80
2019-03-03T09:32:11.448Z,10.90
2019-03-03T09:34:44.912Z,10.80
2019-03-03T09:37:09.152Z,10.80
2019-03-03T09:39:36.865Z,10.90
2019-03-03T09:42:06.691Z,10.90
2019-03-03T09:44:32.922Z,10.90
2019-03-03T09:46:56.092Z,10.80
2019-03-03T09:49:24.882Z,10.90
2019-03-03T09:51:58.703Z,10.90
2019-03-03T09:54:40.488Z,10.90
2019-03-03T09:57:05.834Z,10.90
2019-03-03T09:59:23.439Z,11.00
2019-03-03T10:01:45.652Z,11.00
2019-03-03T10:04:18.249Z,11.00
2019-03-03T10:06:54.696Z,11.00
2019-03-03T10:09:33.510Z,11.00
2019-03-03T10:11:50.520Z,11.00
2019-03-03T10:14:05.849Z,11.00
2019-03-03T10:16:34.491Z,11.00
2019-03-03T10:19:07.115Z,11.00
2019-03-03T10:21:52.318Z,11.00
2019-03-03T10:24:17.037Z,11.00
2019-03-03T10:26:39.436Z,10.90
2019-03-03T10:28:55.564Z,11.00
2019-03-03T10:31:13.607Z,11.00
2019-03-03T10:33:28.474Z,11.00
2019-03-03T10:35:56.432Z,10.90
2019-03-03T10:38:18.813Z,11.00
2019-03-03T10:40:51.068Z,10.90
2019-03-03T10:43:15.330Z,10.90
2019-03-03T10:45:35.848Z,10.90
2019-03-03T10:48:11.437Z,11.00
2019-03-03T10:50:41.417Z,11.00
2019-03-03T10:52:55.115Z,11.10
2019-03-03T10:55:25.621Z,11.10
2019-03-03T10:57:54.101Z,11.10
2019-03-03T11:00:17.270Z,11.20
2019-03-03T11:02:55.989Z,11.20
2019-03-03T11:05:27.444Z,11.30
2019-03-03T11:07:54.793Z,11.20
2019-03-03T11:10:22.961Z,11.30
2019-03-03T11:13:01.592Z,11.30
2019-03-03T11:15:35.069Z,11.20
2019-03-03T11:18:00.153Z,11.30
2019-03-03T11:20:23.446Z,11.30
2019-03-03T11:22:38.120Z,11.30
2019-03-03T11:25:28.206Z,11.30
2019-03-03T11:27:55.829Z,11.30
2019-03-03T11:30:11.305Z,11.30
2019-03-03T11:32:35.218Z,11.30
2019-03-03T11:34:55.503Z,11.30
2019-03-03T11:37:17.976Z,11.40
2019-03-03T11:39:44.289Z,11.40
2019-03-03T11:42:08.950Z,11.40
2019-03-03T11:44:44.804Z,11.50
2019-03-03T11:47:14.380Z,11.60
2019-03-03T11:50:07.978Z,11.60
2019-03-03T11:52:43.200Z,11.60
2019-03-03T11:55:07.604Z,11.70
2019-03-03T11:57:39.993Z,11.80
2019-03-03T12:00:20.825Z,11.70
2019-03-03T12:02:56.591Z,11.70
2019-03-03T12:05:30.370Z,11.70
2019-03-03T12:08:00.541Z,11.70
2019-03-03T12:10:39.703Z,11.70
2019-03-03T12:13:15.314Z,11.70
2019-03-03T12:15:27.863Z,11.80
2019-03-03T12:18:09.765Z,11.80
2019-03-03T12:21:31.956Z,11.90
2019-03-03T12:25:01.492Z,11.80
2019-03-03T12:27:31.303Z,11.90
2019-03-03T12:30:23.470Z,11.90
2019-03-03T12:36:51.124Z,12.00
2019-03-03T12:39:39.947Z,12.00
2019-03-03T12:42:39.801Z,11.90
2019-03-03T12:54:50.319Z,12.00
2019-03-03T12:57:02.618Z,12.00
2019-03-03T12:59:30.526Z,12.10
2019-03-03T13:01:58.092Z,12.10
2019-03-03T13:04:43.008Z,12.10
2019-03-03T13:07:12.031Z,12.10
2019-03-03T13:09:32.129Z,12.10
2019-03-03T13:22:55.601Z,12.10
2019-03-03T13:25:46.641Z,12.10
2019-03-03T13:28:50.704Z,12.10
2019-03-03T13:31:06.385Z,12.10
2019-03-03T13:33:40.190Z,12.10
2019-03-03T13:36:15.029Z,12.10
2019-03-03T13:38:45.162Z,12.10
2019-03-03T13:40:57.651Z,12.10
2019-03-03T13:43:04.376Z,12.10
2019-03-03T13:45:13.235Z,12.10
2019-03-03T13:47:20.749Z,12.10
2019-03-03T13:49:27.966Z,12.10
2019-03-03T13:51:34.171Z,12.10
2019-03-03T13:53:39.720Z,12.10
2019-03-03T13:55:46.696Z,12.10
2019-03-03T13:57:53.075Z,12.10
2019-03-03T13:59:57.800Z,12.10
2019-03-03T14:02:04.893Z,12.00
2019-03-03T14:04:15.019Z,12.00
2019-03-03T14:06:20.529Z,12.00
2019-03-03T14:08:30.171Z,12.00
2019-03-03T14:10:52.712Z,12.10
2019-03-03T14:13:02.037Z,12.10
2019-03-03T14:15:10.962Z,12.00
2019-03-03T14:17:19.250Z,12.00
2019-03-03T14:19:36.934Z,12.00
2019-03-03T14:21:59.719Z,12.00
2019-03-03T14:24:29.568Z,12.00
2019-03-03T14:27:22.122Z,12.20
2019-03-03T14:29:31.582Z,12.20
2019-03-03T14:31:39.475Z,12.10
2019-03-03T14:34:04.745Z,12.10
2019-03-03T14:36:18.371Z,12.10
2019-03-03T14:38:31.103Z,12.10
2019-03-03T14:40:42.055Z,12.10
2019-03-03T14:42:53.114Z,12.10
2019-03-03T14:44:59.908Z,12.20
2019-03-03T14:47:13.924Z,12.20
2019-03-03T14:49:29.554Z,12.20
2019-03-03T14:51:37.225Z,12.20
2019-03-03T14:53:44.818Z,12.20
2019-03-03T14:56:01.126Z,12.20
2019-03-03T14:58:08.837Z,12.20
2019-03-03T15:00:24.523Z,12.10
2019-03-03T15:02:51.540Z,12.10
2019-03-03T15:04:57.175Z,12.10
2019-03-03T15:07:04.259Z,12.10
2019-03-03T15:09:22.239Z,12.10
2019-03-03T15:11:28.711Z,12.20
2019-03-03T15:13:35.100Z,12.20
2019-03-03T15:15:39.919Z,12.20
2019-03-03T15:17:47.725Z,12.20
2019-03-03T15:20:17.129Z,12.20
2019-03-03T15:22:24.146Z,12.20
2019-03-03T15:24:49.409Z,12.10
2019-03-03T15:26:54.128Z,12.20
2019-03-03T15:29:00.524Z,12.20
2019-03-03T15:31:05.520Z,12.20
2019-03-03T15:33:25.401Z,12.20
2019-03-03T15:35:30.670Z,12.30
2019-03-03T15:37:36.282Z,12.30
2019-03-03T15:39:43.157Z,12.20
2019-03-03T15:41:49.308Z,12.30
2019-03-03T15:43:58.549Z,12.20
2019-03-03T15:46:04.620Z,12.20
2019-03-03T15:48:10.011Z,12.20
2019-03-03T15:50:17.152Z,12.20
2019-03-03T15:52:23.823Z,12.20
2019-03-03T15:54:31.207Z,12.20
2019-03-03T15:56:40.006Z,12.20
2019-03-03T15:58:55.552Z,12.20
2019-03-03T16:00:58.954Z,12.30
2019-03-03T16:03:16.573Z,12.30
2019-03-03T16:05:23.732Z,12.30
2019-03-03T16:07:39.831Z,12.20
2019-03-03T16:09:54.322Z,12.20
2019-03-03T16:12:00.641Z,12.30
2019-03-03T16:14:08.678Z,12.30
2019-03-03T16:16:14.061Z,12.20
2019-03-03T16:18:42.329Z,12.30
2019-03-03T16:21:07.468Z,12.30
2019-03-03T16:23:30.067Z,12.20
2019-03-03T16:25:37.232Z,12.30
2019-03-03T16:27:48.725Z,12.20
2019-03-03T16:29:58.346Z,12.30
2019-03-03T16:32:03.096Z,12.30
2019-03-03T16:34:08.842Z,12.30
2019-03-03T16:36:17.333Z,12.20
2019-03-03T16:38:22.365Z,12.10
2019-03-03T16:40:39.063Z,12.10
2019-03-03T16:42:35.283Z,12.10
2019-03-03T16:44:43.174Z,12.20
2019-03-03T16:46:55.968Z,12.10
2019-03-03T16:49:02.543Z,12.20
2019-03-03T16:51:07.875Z,12.10
2019-03-03T16:53:16.978Z,12.10
2019-03-03T16:55:26.708Z,12.10
2019-03-03T16:57:36.054Z,12.10
2019-03-03T16:59:46.907Z,12.20
2019-03-03T17:01:57.381Z,12.20
2019-03-03T17:04:03.408Z,12.20
2019-03-03T17:06:51.886Z,12.20
2019-03-03T17:08:57.936Z,12.20
2019-03-03T17:11:05.561Z,12.20
2019-03-03T17:16:36.861Z,12.20
2019-03-03T17:18:43.143Z,12.20
2019-03-03T17:20:49.397Z,12.20
2019-03-03T17:22:56.772Z,12.20
2019-03-03T17:25:02.668Z,12.20
2019-03-03T17:27:08.008Z,12.20
2019-03-03T17:29:14.135Z,12.20
2019-03-03T17:31:21.043Z,12.20
2019-03-03T17:33:26.634Z,12.20
2019-03-03T17:35:31.913Z,12.20
2019-03-03T17:37:37.977Z,12.20
2019-03-03T17:39:44.829Z,12.20
2019-03-03T17:41:50.387Z,12.20
2019-03-03T17:43:55.881Z,12.20
2019-03-03T17:46:01.246Z,12.10
2019-03-03T17:48:08.381Z,12.10
2019-03-03T17:50:14.665Z,12.20
2019-03-03T17:52:27.285Z,12.20
2019-03-03T17:54:35.364Z,12.20
2019-03-03T17:56:47.569Z,12.20
2019-03-03T17:58:53.867Z,12.20
2019-03-03T18:01:03.979Z,12.20
2019-03-03T18:03:09.785Z,12.20
2019-03-03T18:05:19.235Z,12.10
2019-03-03T18:07:26.973Z,12.10
2019-03-03T18:09:36.391Z,12.10
2019-03-03T18:12:01.425Z,12.10
2019-03-03T18:14:07.489Z,12.10
2019-03-03T18:16:14.249Z,12.10
2019-03-03T18:18:22.805Z,12.10
2019-03-03T18:20:33.940Z,12.10
2019-03-03T18:22:40.358Z,12.10
2019-03-03T18:24:46.295Z,12.10
2019-03-03T18:26:52.319Z,12.10
2019-03-03T18:28:56.996Z,12.10
2019-03-03T18:31:02.042Z,12.10
2019-03-03T18:33:07.984Z,12.10
2019-03-03T18:35:18.364Z,12.10
2019-03-03T18:37:24.420Z,12.20
2019-03-03T18:39:33.860Z,12.20
2019-03-03T18:41:45.698Z,12.20
2019-03-03T18:43:51.617Z,12.20
2019-03-03T18:45:57.362Z,12.20
2019-03-03T18:48:02.444Z,12.30
2019-03-03T18:50:09.318Z,12.30
2019-03-03T18:52:14.298Z,12.30
2019-03-03T18:54:21.181Z,12.30
2019-03-03T18:56:26.772Z,12.30
2019-03-03T18:58:32.290Z,12.30
2019-03-03T19:00:39.833Z,12.40
2019-03-03T19:02:49.048Z,12.40
2019-03-03T19:04:58.428Z,12.40
2019-03-03T19:07:04.374Z,12.50
2019-03-03T19:09:13.447Z,12.60
2019-03-03T19:11:18.605Z,12.60
2019-03-03T19:13:24.246Z,12.60
2019-03-03T19:15:29.644Z,12.60
2019-03-03T19:17:35.558Z,12.60
2019-03-03T19:19:41.572Z,12.60
2019-03-03T19:21:49.183Z,12.70
2019-03-03T19:24:00.180Z,12.70
2019-03-03T19:26:08.188Z,12.70
2019-03-03T19:28:19.083Z,12.70
2019-03-03T19:30:35.652Z,12.80
2019-03-03T19:32:43.898Z,12.80
2019-03-03T19:34:50.596Z,12.80
2019-03-03T19:36:55.887Z,12.80
2019-03-03T19:39:01.271Z,12.80
2019-03-03T19:41:07.358Z,12.80
2019-03-03T19:43:14.785Z,12.80
2019-03-03T19:45:21.498Z,12.80
2019-03-03T19:47:27.738Z,12.80
2019-03-03T19:49:33.955Z,12.80
2019-03-03T19:51:40.885Z,12.80
2019-03-03T19:56:15.835Z,12.80
2019-03-03T19:58:22.367Z,12.80
2019-03-03T20:00:35.495Z,12.80
2019-03-03T20:02:40.605Z,12.80
2019-03-03T20:04:53.569Z,12.80
2019-03-03T20:07:01.649Z,12.80
2019-03-03T20:09:09.784Z,12.80
2019-03-03T20:11:17.485Z,12.90
2019-03-03T20:15:54.181Z,13.00
2019-03-03T20:18:01.717Z,13.00
2019-03-03T20:20:10.816Z,13.00
2019-03-03T20:22:22.657Z,12.90
2019-03-03T20:24:28.624Z,12.90
2019-03-03T20:26:35.977Z,12.90
2019-03-03T20:28:42.039Z,12.90
2019-03-03T20:31:03.335Z,13.00
2019-03-03T20:33:10.313Z,13.10
2019-03-03T20:35:15.661Z,13.00
2019-03-03T20:37:21.804Z,13.00
2019-03-03T20:39:27.219Z,13.00
2019-03-03T20:41:32.902Z,13.00
2019-03-03T20:43:41.544Z,12.90
2019-03-03T20:45:49.169Z,12.80
2019-03-03T20:47:58.630Z,12.80
2019-03-03T20:50:19.282Z,12.80
2019-03-03T20:52:56.396Z,12.70
2019-03-03T20:55:01.154Z,12.70
2019-03-03T20:57:31.584Z,12.70
2019-03-03T20:59:39.683Z,12.80
2019-03-03T21:02:12.405Z,12.90
2019-03-03T21:05:03.463Z,12.80
2019-03-03T21:07:26.728Z,12.80
2019-03-03T21:09:43.963Z,12.80
2019-03-03T21:12:10.758Z,12.80
2019-03-03T21:14:43.579Z,12.80
2019-03-03T21:17:09.718Z,12.70
2019-03-03T21:19:47.617Z,12.70
2019-03-03T21:21:53.906Z,12.80
2019-03-03T21:24:19.479Z,12.80
2019-03-03T21:29:17.507Z,12.90
2019-03-03T21:31:34.754Z,12.90
2019-03-03T21:33:46.247Z,12.90
2019-03-03T21:39:02.100Z,12.90
2019-03-03T21:41:20.670Z,12.80
2019-03-03T21:43:49.469Z,12.70
2019-03-03T21:46:16.193Z,12.70
2019-03-03T21:48:25.944Z,12.60
2019-03-03T21:53:18.791Z,12.60
2019-03-03T21:55:27.227Z,12.70
2019-03-03T21:57:55.326Z,12.60
2019-03-03T22:00:05.555Z,12.70
2019-03-03T22:02:16.848Z,12.70
2019-03-03T22:04:43.301Z,12.60
2019-03-03T22:06:49.793Z,12.60
2019-03-03T22:11:29.979Z,12.70
2019-03-03T22:13:57.334Z,12.70
2019-03-03T22:16:43.531Z,12.70
2019-03-03T22:24:16.869Z,12.60
2019-03-03T22:31:55.066Z,12.60
2019-03-03T22:34:00.467Z,12.60
2019-03-03T22:36:19.368Z,12.60
2019-03-03T22:38:26.447Z,12.60
2019-03-03T22:40:34.109Z,12.60
2019-03-03T22:42:55.349Z,12.60
2019-03-03T22:45:13.182Z,12.60
2019-03-03T22:47:25.193Z,12.60
2019-03-03T22:49:35.918Z,12.50
2019-03-03T22:51:48.833Z,12.50
2019-03-03T22:53:57.971Z,12.40
2019-03-03T22:56:30.967Z,12.40
2019-03-03T22:58:40.867Z,12.40
2019-03-03T23:01:51.078Z,12.40
2019-03-03T23:04:29.358Z,12.40
2019-03-03T23:06:52.135Z,12.30
2019-03-03T23:09:33.831Z,12.30
2019-03-03T23:12:04.171Z,12.30
2019-03-03T23:14:44.109Z,12.40
2019-03-03T23:17:18.878Z,12.40
2019-03-03T23:20:15.584Z,12.40
2019-03-03T23:23:04.145Z,12.50
2019-03-03T23:25:45.486Z,12.50
2019-03-03T23:27:54.596Z,12.40
2019-03-03T23:30:00.996Z,12.40
2019-03-03T23:32:09.137Z,12.40
2019-03-03T23:34:20.418Z,12.50
2019-03-03T23:36:26.449Z,12.50
2019-03-03T23:38:31.652Z,12.50
2019-03-03T23:41:00.153Z,12.50
2019-03-03T23:43:06.854Z,12.40
2019-03-03T23:45:12.750Z,12.40
2019-03-03T23:47:39.023Z,12.40
2019-03-03T23:50:02.001Z,12.40
2019-03-03T23:52:15.278Z,12.40
2019-03-03T23:54:19.882Z,12.40
2019-03-03T23:56:38.115Z,12.40
2019-03-03T23:58:48.729Z,12.50
